createdAt,value
2019-05-25T00:00:39.126Z,13.10
2019-05-25T00:01:42.079Z,13.10
2019-05-25T00:02:45.506Z,13.44
2019-05-25T00:03:49.689Z,13.44
2019-05-25T00:04:53.680Z,13.55
2019-05-25T00:05:56.478Z,13.57
2019-05-25T00:06:59.986Z,13.57
2019-05-25T00:08:02.889Z,13.36
2019-05-25T00:09:07.180Z,13.51
2019-05-25T00:10:10.275Z,13.51
2019-05-25T00:11:14.020Z,13.58
2019-05-25T00:12:16.913Z,13.72
2019-05-25T00:13:20.304Z,13.82
2019-05-25T00:14:23.109Z,13.91
2019-05-25T00:15:26.475Z,13.91
2019-05-25T00:16:31.521Z,13.70
2019-05-25T00:17:38.173Z,13.78
2019-05-25T00:18:41.055Z,13.78
2019-05-25T00:19:44.497Z,13.78
2019-05-25T00:20:48.626Z,13.67
2019-05-25T00:21:52.011Z,13.47
2019-05-25T00:22:56.641Z,13.49
2019-05-25T00:24:11.774Z,13.49
2019-05-25T00:25:04.531Z,13.65
2019-05-25T00:26:10.931Z,13.67
2019-05-25T00:27:22.074Z,13.67
2019-05-25T00:28:27.271Z,13.69
2019-05-25T00:29:30.375Z,13.65
2019-05-25T00:30:33.762Z,13.73
2019-05-25T00:31:36.579Z,13.83
2019-05-25T00:32:39.991Z,13.90
2019-05-25T00:33:42.833Z,13.92
2019-05-25T00:34:46.218Z,13.90
2019-05-25T00:35:49.341Z,13.86
2019-05-25T00:36:52.859Z,13.85
2019-05-25T00:37:55.727Z,13.93
2019-05-25T00:38:59.182Z,13.82
2019-05-25T00:40:05.013Z,13.72
2019-05-25T00:41:08.401Z,13.64
2019-05-25T00:42:11.960Z,13.64
2019-05-25T00:43:15.352Z,13.69
2019-05-25T00:44:18.224Z,13.79
2019-05-25T00:45:22.022Z,13.76
2019-05-25T00:46:25.263Z,13.80
2019-05-25T00:47:28.696Z,13.80
2019-05-25T00:48:31.806Z,13.75
2019-05-25T00:49:35.185Z,13.75
2019-05-25T00:50:38.055Z,13.53
2019-05-25T00:51:42.749Z,13.38
2019-05-25T00:52:45.564Z,13.38
2019-05-25T00:53:48.965Z,13.35
2019-05-25T00:54:52.215Z,13.35
2019-05-25T00:55:55.554Z,13.29
2019-05-25T00:58:26.082Z,13.44
2019-05-25T00:59:29.465Z,13.55
2019-05-25T01:00:34.933Z,13.51
2019-05-25T01:01:38.635Z,13.29
2019-05-25T01:02:44.516Z,13.05
2019-05-25T01:03:48.374Z,13.05
2019-05-25T01:04:51.227Z,12.99
2019-05-25T01:05:54.676Z,13.01
2019-05-25T01:06:57.480Z,12.97
2019-05-25T01:08:01.210Z,12.99
2019-05-25T01:09:06.326Z,13.02
2019-05-25T01:10:09.704Z,13.06
2019-05-25T01:11:12.545Z,13.09
2019-05-25T01:12:15.995Z,13.02
2019-05-25T01:13:18.900Z,13.07
2019-05-25T01:14:22.629Z,13.00
2019-05-25T01:15:25.826Z,12.99
2019-05-25T01:16:29.307Z,12.97
2019-05-25T01:17:32.593Z,12.97
2019-05-25T01:18:36.109Z,12.97
2019-05-25T01:19:38.970Z,12.48
2019-05-25T01:20:42.714Z,12.23
2019-05-25T01:21:45.973Z,11.98
2019-05-25T01:22:49.466Z,11.98
2019-05-25T01:23:55.493Z,12.30
2019-05-25T01:25:01.867Z,12.44
2019-05-25T01:26:04.780Z,12.44
2019-05-25T01:27:08.971Z,12.58
2019-05-25T01:28:11.900Z,12.50
2019-05-25T01:29:17.286Z,12.50
2019-05-25T01:30:20.302Z,12.62
2019-05-25T01:31:23.685Z,12.62
2019-05-25T01:32:26.585Z,12.71
2019-05-25T01:33:30.515Z,12.78
2019-05-25T01:34:33.307Z,12.68
2019-05-25T01:35:36.671Z,12.63
2019-05-25T01:36:39.454Z,12.62
2019-05-25T01:37:42.833Z,12.54
2019-05-25T01:38:45.715Z,12.54
2019-05-25T01:39:49.383Z,12.55
2019-05-25T01:40:53.656Z,12.49
2019-05-25T01:41:57.021Z,12.49
2019-05-25T01:42:59.879Z,12.55
2019-05-25T01:44:03.579Z,12.51
2019-05-25T01:45:06.405Z,12.55
2019-05-25T01:46:11.610Z,12.37
2019-05-25T01:47:14.403Z,12.09
2019-05-25T01:48:17.823Z,11.96
2019-05-25T01:49:20.716Z,11.96
2019-05-25T01:50:24.119Z,12.15
2019-05-25T01:51:26.901Z,12.12
2019-05-25T01:52:30.324Z,12.12
2019-05-25T01:53:33.113Z,12.17
2019-05-25T01:54:36.566Z,12.27
2019-05-25T01:55:39.780Z,12.30
2019-05-25T01:56:43.192Z,12.29
2019-05-25T01:57:46.367Z,12.22
2019-05-25T01:58:50.117Z,12.34
2019-05-25T01:59:52.975Z,12.36
2019-05-25T02:00:56.377Z,12.39
2019-05-25T02:01:59.187Z,12.38
2019-05-25T02:03:02.612Z,12.29
2019-05-25T02:04:05.500Z,12.27
2019-05-25T02:05:09.172Z,12.21
2019-05-25T02:06:12.037Z,12.21
2019-05-25T02:07:15.445Z,12.10
2019-05-25T02:08:18.211Z,12.12
2019-05-25T02:09:22.247Z,12.12
2019-05-25T02:10:25.675Z,12.17
2019-05-25T02:11:29.621Z,12.17
2019-05-25T02:12:32.464Z,12.17
2019-05-25T02:13:35.846Z,12.04
2019-05-25T02:14:38.732Z,12.04
2019-05-25T02:15:42.205Z,11.96
2019-05-25T02:16:47.845Z,11.96
2019-05-25T02:17:51.508Z,11.93
2019-05-25T02:18:54.312Z,11.97
2019-05-25T02:19:57.887Z,11.97
2019-05-25T02:21:00.680Z,12.03
2019-05-25T02:22:04.151Z,12.02
2019-05-25T02:23:06.969Z,12.02
2019-05-25T02:25:47.891Z,11.85
2019-05-25T02:26:51.330Z,11.96
2019-05-25T02:27:54.109Z,11.96
2019-05-25T02:28:57.476Z,11.96
2019-05-25T02:30:00.486Z,11.89
2019-05-25T02:31:03.862Z,11.89
2019-05-25T02:32:06.976Z,11.81
2019-05-25T02:33:10.382Z,11.77
2019-05-25T02:34:13.197Z,11.72
2019-05-25T02:35:16.668Z,11.69
2019-05-25T02:36:20.937Z,11.62
2019-05-25T02:37:24.514Z,11.41
2019-05-25T02:38:27.624Z,11.30
2019-05-25T02:39:31.005Z,11.33
2019-05-25T02:40:34.246Z,11.39
2019-05-25T02:41:37.642Z,11.44
2019-05-25T02:42:40.686Z,11.38
2019-05-25T02:43:44.126Z,11.38
2019-05-25T02:44:47.209Z,11.38
2019-05-25T02:45:50.795Z,11.30
2019-05-25T02:46:55.964Z,11.46
2019-05-25T02:47:59.900Z,11.44
2019-05-25T02:49:03.073Z,11.38
2019-05-25T02:50:06.511Z,11.41
2019-05-25T02:51:09.808Z,11.45
2019-05-25T02:52:13.306Z,11.55
2019-05-25T02:53:18.618Z,11.58
2019-05-25T02:54:21.206Z,11.53
2019-05-25T02:55:33.647Z,11.53
2019-05-25T02:56:29.745Z,11.53
2019-05-25T02:57:32.934Z,11.44
2019-05-25T02:58:36.681Z,11.14
2019-05-25T02:59:39.946Z,11.06
2019-05-25T03:00:43.337Z,11.01
2019-05-25T03:01:46.189Z,11.04
2019-05-25T03:02:52.240Z,11.14
2019-05-25T03:03:55.324Z,11.16
2019-05-25T03:04:58.821Z,11.15
2019-05-25T03:06:01.787Z,11.15
2019-05-25T03:07:05.280Z,11.13
2019-05-25T03:08:10.361Z,11.16
2019-05-25T03:09:13.759Z,11.13
2019-05-25T03:10:21.147Z,11.08
2019-05-25T03:11:39.902Z,11.08
2019-05-25T03:12:42.755Z,11.16
2019-05-25T03:13:47.712Z,10.97
2019-05-25T03:14:50.468Z,10.95
2019-05-25T03:15:54.366Z,10.93
2019-05-25T03:16:57.452Z,10.83
2019-05-25T03:18:01.914Z,10.78
2019-05-25T03:19:04.723Z,10.78
2019-05-25T03:20:08.170Z,10.85
2019-05-25T03:21:11.404Z,10.89
2019-05-25T03:22:14.854Z,10.87
2019-05-25T03:23:18.537Z,10.91
2019-05-25T03:24:22.303Z,11.01
2019-05-25T03:25:25.297Z,11.01
2019-05-25T03:26:28.688Z,11.00
2019-05-25T03:27:31.685Z,11.05
2019-05-25T03:28:35.073Z,10.98
2019-05-25T03:29:39.315Z,10.98
2019-05-25T03:30:42.689Z,10.87
2019-05-25T03:31:45.484Z,10.87
2019-05-25T03:32:50.135Z,10.88
2019-05-25T03:33:53.392Z,10.88
2019-05-25T03:34:56.781Z,10.87
2019-05-25T03:35:59.897Z,10.84
2019-05-25T03:37:03.436Z,10.81
2019-05-25T03:38:06.351Z,10.81
2019-05-25T03:39:09.707Z,10.79
2019-05-25T03:40:12.525Z,10.78
2019-05-25T03:41:16.287Z,10.83
2019-05-25T03:42:19.826Z,10.94
2019-05-25T03:43:23.297Z,10.98
2019-05-25T03:44:26.097Z,10.95
2019-05-25T03:45:29.471Z,10.93
2019-05-25T03:46:32.238Z,10.93
2019-05-25T03:47:35.759Z,10.86
2019-05-25T03:48:38.824Z,10.86
2019-05-25T03:49:42.260Z,10.88
2019-05-25T03:50:45.458Z,10.95
2019-05-25T03:51:48.888Z,11.00
2019-05-25T03:52:51.714Z,11.05
2019-05-25T03:53:55.104Z,11.05
2019-05-25T03:54:58.536Z,11.08
2019-05-25T03:56:05.998Z,11.08
2019-05-25T03:57:06.454Z,11.04
2019-05-25T03:58:09.830Z,11.04
2019-05-25T03:59:15.046Z,10.99
2019-05-25T04:00:18.423Z,11.03
2019-05-25T04:01:21.535Z,10.90
2019-05-25T04:02:27.889Z,10.90
2019-05-25T04:03:30.785Z,10.89
2019-05-25T04:04:34.242Z,10.96
2019-05-25T04:05:37.081Z,10.98
2019-05-25T04:06:40.491Z,10.85
2019-05-25T04:07:45.203Z,10.90
2019-05-25T04:08:48.651Z,10.91
2019-05-25T04:09:51.431Z,10.66
2019-05-25T04:10:54.913Z,10.72
2019-05-25T04:11:57.737Z,10.64
2019-05-25T04:13:01.186Z,10.67
2019-05-25T04:14:04.358Z,10.80
2019-05-25T04:15:07.809Z,10.93
2019-05-25T04:16:11.088Z,11.07
2019-05-25T04:17:14.714Z,11.07
2019-05-25T04:18:17.932Z,11.08
2019-05-25T04:19:21.784Z,11.06
2019-05-25T04:20:25.989Z,10.85
2019-05-25T04:21:29.381Z,10.70
2019-05-25T04:22:32.212Z,10.75
2019-05-25T04:23:35.585Z,10.75
2019-05-25T04:24:38.854Z,10.70
2019-05-25T04:25:42.314Z,10.70
2019-05-25T04:26:45.801Z,10.80
2019-05-25T04:27:49.158Z,10.86
2019-05-25T04:28:52.338Z,10.86
2019-05-25T04:29:55.758Z,10.90
2019-05-25T04:30:58.973Z,10.96
2019-05-25T04:32:02.399Z,10.98
2019-05-25T04:33:05.526Z,10.98
2019-05-25T04:34:09.279Z,10.93
2019-05-25T04:35:12.179Z,10.65
2019-05-25T04:36:15.543Z,10.49
2019-05-25T04:37:18.786Z,10.49
2019-05-25T04:38:22.165Z,10.68
2019-05-25T04:39:25.250Z,10.78
2019-05-25T04:40:28.716Z,10.83
2019-05-25T04:41:33.304Z,10.84
2019-05-25T04:42:36.738Z,10.81
2019-05-25T04:43:39.538Z,10.84
2019-05-25T04:44:43.321Z,10.84
2019-05-25T04:45:46.572Z,10.79
2019-05-25T04:46:51.330Z,10.76
2019-05-25T04:47:54.420Z,10.78
2019-05-25T04:48:58.890Z,10.81
2019-05-25T04:50:01.672Z,10.89
2019-05-25T04:51:06.250Z,10.85
2019-05-25T04:52:12.137Z,10.84
2019-05-25T04:53:15.497Z,10.84
2019-05-25T04:54:18.325Z,11.03
2019-05-25T04:55:21.736Z,11.03
2019-05-25T04:56:38.137Z,11.16
2019-05-25T04:57:30.074Z,11.23
2019-05-25T04:58:33.150Z,11.35
2019-05-25T04:59:36.600Z,11.35
2019-05-25T05:00:39.403Z,11.51
2019-05-25T05:01:42.830Z,11.56
2019-05-25T05:02:46.065Z,11.58
2019-05-25T05:03:52.572Z,11.66
2019-05-25T05:04:57.335Z,11.65
2019-05-25T05:06:00.970Z,11.68
2019-05-25T05:07:03.784Z,11.68
2019-05-25T05:08:07.185Z,11.65
2019-05-25T05:09:10.010Z,11.58
2019-05-25T05:10:13.469Z,11.54
2019-05-25T05:11:18.443Z,11.54
2019-05-25T05:12:21.926Z,11.32
2019-05-25T05:13:24.750Z,11.19
2019-05-25T05:14:28.165Z,11.19
2019-05-25T05:15:31.422Z,11.11
2019-05-25T05:16:34.831Z,11.11
2019-05-25T05:17:38.472Z,11.10
2019-05-25T05:18:41.910Z,11.39
2019-05-25T05:19:44.685Z,11.39
2019-05-25T05:20:48.108Z,11.28
2019-05-25T05:21:50.970Z,11.44
2019-05-25T05:22:54.778Z,11.44
2019-05-25T05:23:57.891Z,11.67
2019-05-25T05:25:01.291Z,11.67
2019-05-25T05:26:04.147Z,11.60
2019-05-25T05:27:07.601Z,11.66
2019-05-25T05:28:10.523Z,11.71
2019-05-25T05:29:15.761Z,11.76
2019-05-25T05:43:51.691Z,12.17
2019-05-25T05:44:56.793Z,12.26
2019-05-25T05:45:59.607Z,12.28
2019-05-25T05:47:04.033Z,12.11
2019-05-25T05:48:06.919Z,12.11
2019-05-25T05:49:11.616Z,12.16
2019-05-25T05:50:14.553Z,12.16
2019-05-25T05:51:17.930Z,12.25
2019-05-25T05:52:20.749Z,12.20
2019-05-25T05:53:24.248Z,12.24
2019-05-25T05:54:27.098Z,12.24
2019-05-25T05:55:30.798Z,12.04
2019-05-25T05:56:34.086Z,11.99
2019-05-25T05:57:37.490Z,12.14
2019-05-25T05:58:40.475Z,12.14
2019-05-25T05:59:45.219Z,12.45
2019-05-25T06:00:49.112Z,12.43
2019-05-25T06:01:52.767Z,12.48
2019-05-25T06:02:55.697Z,12.48
2019-05-25T06:03:59.156Z,12.19
2019-05-25T06:05:02.685Z,11.99
2019-05-25T06:06:06.451Z,11.99
2019-05-25T06:07:09.306Z,11.76
2019-05-25T06:08:13.122Z,11.87
2019-05-25T06:09:16.621Z,11.87
2019-05-25T06:10:20.045Z,11.94
2019-05-25T06:11:22.993Z,11.94
2019-05-25T06:12:26.409Z,12.08
2019-05-25T06:13:29.278Z,12.08
2019-05-25T06:14:34.559Z,12.28
2019-05-25T06:15:37.380Z,11.91
2019-05-25T06:16:40.802Z,11.91
2019-05-25T06:17:43.610Z,12.11
2019-05-25T06:18:47.050Z,12.13
2019-05-25T06:19:49.887Z,12.13
2019-05-25T06:20:53.628Z,12.09
2019-05-25T06:21:56.423Z,12.32
2019-05-25T06:23:00.142Z,12.24
2019-05-25T06:24:02.979Z,12.46
2019-05-25T06:25:06.890Z,12.30
2019-05-25T06:26:09.710Z,12.21
2019-05-25T06:27:26.357Z,12.29
2019-05-25T06:28:21.634Z,12.29
2019-05-25T06:29:22.947Z,12.83
2019-05-25T06:30:25.893Z,12.83
2019-05-25T06:31:29.315Z,12.95
2019-05-25T06:32:32.639Z,13.19
2019-05-25T06:33:36.322Z,13.29
2019-05-25T06:34:40.601Z,13.44
2019-05-25T06:35:44.062Z,13.44
2019-05-25T06:36:48.123Z,13.56
2019-05-25T06:37:51.534Z,13.67
2019-05-25T06:38:58.898Z,13.77
2019-05-25T06:40:02.397Z,13.93
2019-05-25T06:41:08.422Z,13.85
2019-05-25T06:42:10.533Z,13.93
2019-05-25T06:43:13.345Z,13.97
2019-05-25T06:44:16.786Z,14.05
2019-05-25T06:45:20.400Z,14.13
2019-05-25T06:46:23.794Z,14.20
2019-05-25T06:47:27.073Z,14.20
2019-05-25T06:48:30.455Z,14.30
2019-05-25T06:49:36.291Z,14.30
2019-05-25T06:50:39.787Z,14.39
2019-05-25T06:51:42.926Z,14.54
2019-05-25T06:52:46.418Z,14.53
2019-05-25T06:53:49.493Z,14.53
2019-05-25T06:54:53.031Z,14.52
2019-05-25T06:55:55.845Z,14.49
2019-05-25T06:56:59.369Z,14.74
2019-05-25T06:58:02.525Z,14.91
2019-05-25T06:59:05.960Z,14.95
2019-05-25T07:00:08.873Z,14.99
2019-05-25T07:01:12.758Z,15.03
2019-05-25T07:02:15.561Z,15.03
2019-05-25T07:03:19.086Z,15.00
2019-05-25T07:04:22.247Z,15.11
2019-05-25T07:05:25.851Z,15.14
2019-05-25T07:06:31.445Z,15.14
2019-05-25T07:07:35.121Z,15.24
2019-05-25T07:08:40.538Z,15.34
2019-05-25T07:09:44.087Z,15.31
2019-05-25T07:10:47.622Z,15.37
2019-05-25T07:11:51.063Z,15.55
2019-05-25T07:12:53.881Z,15.64
2019-05-25T07:13:57.257Z,15.99
2019-05-25T07:15:05.883Z,16.04
2019-05-25T07:16:12.927Z,15.83
2019-05-25T07:17:16.407Z,15.83
2019-05-25T07:18:19.910Z,15.86
2019-05-25T07:19:22.771Z,15.73
2019-05-25T07:20:30.199Z,15.94
2019-05-25T07:21:33.104Z,15.89
2019-05-25T07:22:38.098Z,15.59
2019-05-25T07:23:41.252Z,15.81
2019-05-25T07:24:44.672Z,16.02
2019-05-25T07:25:47.649Z,16.02
2019-05-25T07:26:54.070Z,16.26
2019-05-25T07:28:02.443Z,16.39
2019-05-25T07:29:05.902Z,16.39
2019-05-25T07:30:10.900Z,16.00
2019-05-25T07:31:14.469Z,16.40
2019-05-25T07:32:17.274Z,16.38
2019-05-25T07:33:24.877Z,16.38
2019-05-25T07:34:28.560Z,16.27
2019-05-25T07:35:32.952Z,16.26
2019-05-25T07:36:36.383Z,15.84
2019-05-25T07:37:39.790Z,16.31
2019-05-25T07:38:42.585Z,16.32
2019-05-25T07:39:45.990Z,16.27
2019-05-25T07:40:48.967Z,16.41
2019-05-25T07:41:52.999Z,16.41
2019-05-25T07:43:02.841Z,16.33
2019-05-25T07:44:06.048Z,16.34
2019-05-25T07:45:08.996Z,16.45
2019-05-25T07:46:12.342Z,16.58
2019-05-25T07:47:15.665Z,16.81
2019-05-25T07:48:22.741Z,16.78
2019-05-25T07:49:25.955Z,16.96
2019-05-25T07:50:29.774Z,17.13
2019-05-25T07:51:33.066Z,17.03
2019-05-25T07:52:36.520Z,17.03
2019-05-25T07:53:39.360Z,16.93
2019-05-25T07:54:42.824Z,16.96
2019-05-25T07:55:46.067Z,17.06
2019-05-25T07:56:51.941Z,17.04
2019-05-25T07:57:54.818Z,17.04
2019-05-25T07:58:58.938Z,17.16
2019-05-25T08:00:01.854Z,17.04
2019-05-25T08:01:05.244Z,17.25
2019-05-25T08:02:08.345Z,17.36
2019-05-25T08:03:12.049Z,17.20
2019-05-25T08:04:14.867Z,17.20
2019-05-25T08:05:18.394Z,17.60
2019-05-25T08:06:21.652Z,17.57
2019-05-25T08:07:27.974Z,17.33
2019-05-25T08:08:39.938Z,17.43
2019-05-25T08:09:43.339Z,17.43
2019-05-25T08:10:46.194Z,17.82
2019-05-25T08:11:51.039Z,17.82
2019-05-25T08:12:53.915Z,17.55
2019-05-25T08:13:57.676Z,17.61
2019-05-25T08:15:00.499Z,17.61
2019-05-25T08:16:03.908Z,17.67
2019-05-25T08:17:06.846Z,18.13
2019-05-25T08:18:10.257Z,18.15
2019-05-25T08:19:13.532Z,18.12
2019-05-25T08:20:17.279Z,18.12
2019-05-25T08:21:25.341Z,18.20
2019-05-25T08:22:35.387Z,18.28
2019-05-25T08:23:37.484Z,18.50
2019-05-25T08:24:45.231Z,18.66
2019-05-25T08:25:53.530Z,18.74
2019-05-25T08:27:01.159Z,18.74
2019-05-25T08:28:01.365Z,18.53
2019-05-25T08:29:07.026Z,18.64
2019-05-25T08:30:09.833Z,18.64
2019-05-25T08:31:13.332Z,18.31
2019-05-25T08:32:16.464Z,18.31
2019-05-25T08:33:20.757Z,18.60
2019-05-25T08:34:23.556Z,18.68
2019-05-25T08:35:29.707Z,18.39
2019-05-25T08:36:32.601Z,18.39
2019-05-25T08:37:36.015Z,18.52
2019-05-25T08:38:39.165Z,18.52
2019-05-25T08:39:45.203Z,18.82
2019-05-25T08:40:47.783Z,18.82
2019-05-25T08:41:51.557Z,18.91
2019-05-25T08:42:54.388Z,18.82
2019-05-25T08:43:57.865Z,18.82
2019-05-25T08:45:01.108Z,18.80
2019-05-25T08:46:04.660Z,18.85
2019-05-25T08:47:07.623Z,18.50
2019-05-25T08:48:11.007Z,18.50
2019-05-25T08:49:13.931Z,18.91
2019-05-25T08:50:17.310Z,19.14
2019-05-25T08:51:25.710Z,19.14
2019-05-25T08:52:29.151Z,18.89
2019-05-25T08:53:41.285Z,18.89
2019-05-25T08:54:41.204Z,19.25
2019-05-25T08:55:44.164Z,19.19
2019-05-25T08:57:02.850Z,19.23
2019-05-25T08:58:06.950Z,18.70
2019-05-25T08:59:13.277Z,18.95
2019-05-25T09:00:25.219Z,19.12
2019-05-25T09:01:28.600Z,19.12
2019-05-25T09:02:32.998Z,19.21
2019-05-25T09:03:38.426Z,18.99
2019-05-25T09:04:46.819Z,19.31
2019-05-25T09:05:50.356Z,19.61
2019-05-25T09:06:53.304Z,19.82
2019-05-25T09:07:56.731Z,19.78
2019-05-25T09:08:59.656Z,19.46
2019-05-25T09:10:03.414Z,19.56
2019-05-25T09:11:06.345Z,19.73
2019-05-25T09:12:09.745Z,19.73
2019-05-25T09:13:14.099Z,20.10
2019-05-25T09:14:17.526Z,20.09
2019-05-25T09:15:20.334Z,19.90
2019-05-25T09:16:24.214Z,19.65
2019-05-25T09:17:31.326Z,19.92
2019-05-25T09:18:32.107Z,19.94
2019-05-25T09:19:34.935Z,19.90
2019-05-25T09:20:38.319Z,19.39
2019-05-25T09:21:41.191Z,19.39
2019-05-25T09:22:50.340Z,19.44
2019-05-25T09:23:53.375Z,19.92
2019-05-25T09:24:56.754Z,19.98
2019-05-25T09:26:00.192Z,20.08
2019-05-25T09:27:03.757Z,19.65
2019-05-25T09:28:06.605Z,19.65
2019-05-25T09:29:12.940Z,19.64
2019-05-25T09:30:15.776Z,19.51
2019-05-25T09:31:19.228Z,19.51
2019-05-25T09:32:24.648Z,19.59
2019-05-25T09:33:33.171Z,19.47
2019-05-25T09:34:38.837Z,18.84
2019-05-25T09:35:45.046Z,18.84
2019-05-25T09:36:48.269Z,18.85
2019-05-25T09:37:51.576Z,18.85
2019-05-25T09:38:54.236Z,18.77
2019-05-25T09:39:57.839Z,18.77
2019-05-25T09:41:00.623Z,19.73
2019-05-25T09:42:08.649Z,19.82
2019-05-25T09:43:12.691Z,19.56
2019-05-25T09:44:16.205Z,19.69
2019-05-25T09:45:19.098Z,19.60
2019-05-25T09:46:24.118Z,19.71
2019-05-25T09:47:27.110Z,18.78
2019-05-25T09:48:33.264Z,18.03
2019-05-25T09:49:40.523Z,18.66
2019-05-25T09:50:51.415Z,19.07
2019-05-25T09:51:54.757Z,19.07
2019-05-25T09:52:58.430Z,19.85
2019-05-25T09:54:01.373Z,20.17
2019-05-25T09:55:05.236Z,20.17
2019-05-25T09:56:08.477Z,20.28
2019-05-25T09:57:12.301Z,18.91
2019-05-25T09:58:15.599Z,18.48
2019-05-25T09:59:20.584Z,18.71
2019-05-25T10:00:26.758Z,19.07
2019-05-25T10:01:30.870Z,19.13
2019-05-25T10:02:37.304Z,18.94
2019-05-25T10:03:40.974Z,19.35
2019-05-25T10:04:47.621Z,19.84
2019-05-25T10:05:51.036Z,19.84
2019-05-25T10:06:53.903Z,20.20
2019-05-25T10:07:59.376Z,20.32
2019-05-25T10:09:02.250Z,20.29
2019-05-25T10:10:07.836Z,20.17
2019-05-25T10:11:13.417Z,19.62
2019-05-25T10:12:18.876Z,19.65
2019-05-25T10:13:24.836Z,19.65
2019-05-25T10:14:31.368Z,19.66
2019-05-25T10:15:34.267Z,19.66
2019-05-25T10:16:41.402Z,20.25
2019-05-25T10:17:44.469Z,20.02
2019-05-25T10:18:47.873Z,20.49
2019-05-25T10:19:50.954Z,20.86
2019-05-25T10:20:59.899Z,20.79
2019-05-25T10:22:02.605Z,20.68
2019-05-25T10:23:06.091Z,20.73
2019-05-25T10:24:08.931Z,20.53
2019-05-25T10:25:14.623Z,20.72
2019-05-25T10:26:23.300Z,20.54
2019-05-25T10:27:27.502Z,20.56
2019-05-25T10:28:30.355Z,20.56
2019-05-25T10:29:37.100Z,20.67
2019-05-25T10:42:55.752Z,20.87
2019-05-25T10:44:01.427Z,20.80
2019-05-25T10:45:04.035Z,20.57
2019-05-25T10:46:08.242Z,20.57
2019-05-25T10:47:12.255Z,20.88
2019-05-25T10:48:16.293Z,21.07
2019-05-25T10:49:31.860Z,21.37
2019-05-25T10:50:35.300Z,21.83
2019-05-25T10:51:38.351Z,21.92
2019-05-25T10:52:41.806Z,21.66
2019-05-25T10:53:46.646Z,22.00
2019-05-25T10:54:53.376Z,22.00
2019-05-25T10:55:56.192Z,22.09
2019-05-25T10:57:01.324Z,21.72
2019-05-25T10:58:04.155Z,21.99
2019-05-25T10:59:11.013Z,21.87
2019-05-25T11:00:14.459Z,21.70
2019-05-25T11:01:18.377Z,21.51
2019-05-25T11:02:21.244Z,21.41
2019-05-25T11:03:24.732Z,21.67
2019-05-25T11:04:27.769Z,21.37
2019-05-25T11:05:34.275Z,21.69
2019-05-25T11:06:38.567Z,21.85
2019-05-25T11:07:45.924Z,21.78
2019-05-25T11:08:48.798Z,21.93
2019-05-25T11:09:52.822Z,21.56
2019-05-25T11:10:55.604Z,21.38
2019-05-25T11:11:59.125Z,21.48
2019-05-25T11:13:02.013Z,22.02
2019-05-25T11:14:10.532Z,22.12
2019-05-25T11:15:20.376Z,22.12
2019-05-25T11:16:24.017Z,22.06
2019-05-25T11:17:28.894Z,21.08
2019-05-25T11:18:32.389Z,21.02
2019-05-25T11:19:37.514Z,21.26
2019-05-25T11:20:41.574Z,21.62
2019-05-25T11:21:44.464Z,21.22
2019-05-25T11:22:50.945Z,20.91
2019-05-25T11:23:55.046Z,20.79
2019-05-25T11:24:58.551Z,20.99
2019-05-25T11:26:01.397Z,21.34
2019-05-25T11:27:05.333Z,21.34
2019-05-25T11:28:08.534Z,20.92
2019-05-25T11:29:14.897Z,19.17
2019-05-25T11:30:18.040Z,20.39
2019-05-25T11:31:21.489Z,21.40
2019-05-25T11:32:26.811Z,21.40
2019-05-25T11:33:36.298Z,21.80
2019-05-25T11:34:38.241Z,21.97
2019-05-25T11:35:44.732Z,22.19
2019-05-25T11:36:47.410Z,21.47
2019-05-25T11:37:50.955Z,20.91
2019-05-25T11:38:53.713Z,20.63
2019-05-25T11:39:58.453Z,20.61
2019-05-25T11:41:01.299Z,21.31
2019-05-25T11:42:04.715Z,20.52
2019-05-25T11:43:10.774Z,21.00
2019-05-25T11:44:14.515Z,21.22
2019-05-25T11:45:17.785Z,21.47
2019-05-25T11:46:23.897Z,21.23
2019-05-25T11:47:26.645Z,21.85
2019-05-25T11:48:34.141Z,22.11
2019-05-25T11:49:37.027Z,22.21
2019-05-25T11:50:41.265Z,22.22
2019-05-25T11:51:44.356Z,22.30
2019-05-25T11:52:48.255Z,22.33
2019-05-25T11:53:51.169Z,21.91
2019-05-25T11:54:54.599Z,21.93
2019-05-25T11:55:57.448Z,21.93
2019-05-25T11:57:00.913Z,21.84
2019-05-25T11:58:03.769Z,21.94
2019-05-25T11:59:07.521Z,20.77
2019-05-25T12:00:24.182Z,21.36
2019-05-25T12:01:20.604Z,20.56
2019-05-25T12:02:27.903Z,20.77
2019-05-25T12:03:31.535Z,20.87
2019-05-25T12:04:34.777Z,20.87
2019-05-25T12:05:38.616Z,20.84
2019-05-25T12:06:41.840Z,20.88
2019-05-25T12:07:48.145Z,19.78
2019-05-25T12:08:51.092Z,19.04
2019-05-25T12:09:54.792Z,19.04
2019-05-25T12:10:57.578Z,19.74
2019-05-25T12:12:01.426Z,19.47
2019-05-25T12:13:04.393Z,19.70
2019-05-25T12:14:09.370Z,20.47
2019-05-25T12:15:12.412Z,20.47
2019-05-25T12:16:18.976Z,21.84
2019-05-25T12:17:22.960Z,22.35
2019-05-25T12:18:26.927Z,22.64
2019-05-25T12:19:32.487Z,22.60
2019-05-25T12:20:35.993Z,21.72
2019-05-25T12:21:38.793Z,21.24
2019-05-25T12:22:42.309Z,21.27
2019-05-25T12:23:45.363Z,21.27
2019-05-25T12:24:55.330Z,20.62
2019-05-25T12:25:58.513Z,20.91
2019-05-25T12:27:02.356Z,21.39
2019-05-25T12:28:05.664Z,21.74
2019-05-25T12:29:12.576Z,22.05
2019-05-25T12:30:17.417Z,22.22
2019-05-25T12:31:22.302Z,22.22
2019-05-25T12:32:25.696Z,22.72
2019-05-25T12:33:30.408Z,22.73
2019-05-25T12:34:34.667Z,22.90
2019-05-25T12:35:40.898Z,23.05
2019-05-25T12:36:43.816Z,23.16
2019-05-25T12:37:47.596Z,23.09
2019-05-25T12:38:50.782Z,22.81
2019-05-25T12:39:54.314Z,22.50
2019-05-25T12:40:57.186Z,22.55
2019-05-25T12:42:01.448Z,22.77
2019-05-25T12:43:04.879Z,22.90
2019-05-25T12:44:08.784Z,23.16
2019-05-25T12:45:14.768Z,23.47
2019-05-25T12:46:21.486Z,23.20
2019-05-25T12:47:24.730Z,23.40
2019-05-25T12:48:28.419Z,23.58
2019-05-25T12:49:49.951Z,22.99
2019-05-25T12:50:41.302Z,22.79
2019-05-25T12:51:45.158Z,22.89
2019-05-25T12:52:49.809Z,22.89
2019-05-25T12:53:52.659Z,23.20
2019-05-25T12:54:59.385Z,23.22
2019-05-25T12:56:02.742Z,23.14
2019-05-25T12:57:08.019Z,23.39
2019-05-25T12:58:11.198Z,23.39
2019-05-25T12:59:18.357Z,23.54
2019-05-25T13:00:27.270Z,24.03
2019-05-25T13:01:30.653Z,24.03
2019-05-25T13:02:39.972Z,23.61
2019-05-25T13:03:43.423Z,23.08
2019-05-25T13:04:49.058Z,23.16
2019-05-25T13:05:52.456Z,23.01
2019-05-25T13:06:55.114Z,22.93
2019-05-25T13:07:58.753Z,23.27
2019-05-25T13:09:04.358Z,23.27
2019-05-25T13:10:08.090Z,22.98
2019-05-25T13:11:10.999Z,22.98
2019-05-25T13:12:14.439Z,23.29
2019-05-25T13:13:18.090Z,23.33
2019-05-25T13:14:21.649Z,23.33
2019-05-25T13:15:27.209Z,23.07
2019-05-25T13:16:30.579Z,22.70
2019-05-25T13:17:33.598Z,22.50
2019-05-25T13:18:37.311Z,22.49
2019-05-25T13:19:40.192Z,22.42
2019-05-25T13:20:43.798Z,22.42
2019-05-25T13:21:48.258Z,22.34
2019-05-25T13:22:57.105Z,22.64
2019-05-25T13:24:02.178Z,22.58
2019-05-25T13:25:08.076Z,22.58
2019-05-25T13:26:11.114Z,22.03
2019-05-25T13:27:20.379Z,22.24
2019-05-25T13:28:32.333Z,22.24
2019-05-25T13:29:35.806Z,22.20
2019-05-25T13:30:38.637Z,22.18
2019-05-25T13:31:42.183Z,22.16
2019-05-25T13:32:47.772Z,22.18
2019-05-25T13:33:51.719Z,22.52
2019-05-25T13:34:57.006Z,22.69
2019-05-25T13:36:04.796Z,22.52
2019-05-25T13:37:07.478Z,21.55
2019-05-25T13:38:12.355Z,21.55
2019-05-25T13:39:18.111Z,21.83
2019-05-25T13:40:22.073Z,22.73
2019-05-25T13:41:25.081Z,22.53
2019-05-25T13:42:28.926Z,22.31
2019-05-25T13:43:33.842Z,22.31
2019-05-25T13:44:37.862Z,22.76
2019-05-25T13:45:40.939Z,22.75
2019-05-25T13:46:50.715Z,23.14
2019-05-25T13:47:57.156Z,23.10
2019-05-25T13:49:00.424Z,23.10
2019-05-25T13:50:03.316Z,21.77
2019-05-25T13:51:06.946Z,22.53
2019-05-25T13:52:14.747Z,22.26
2019-05-25T13:53:18.437Z,22.15
2019-05-25T13:54:21.231Z,22.07
2019-05-25T13:55:26.320Z,22.21
2019-05-25T13:56:30.565Z,21.99
2019-05-25T13:57:34.097Z,21.89
2019-05-25T13:58:39.305Z,21.18
2019-05-25T13:59:43.557Z,21.08
2019-05-25T14:00:49.999Z,21.08
2019-05-25T14:01:57.248Z,21.97
2019-05-25T14:03:00.423Z,22.86
2019-05-25T14:04:04.555Z,23.24
2019-05-25T14:05:08.325Z,23.56
2019-05-25T14:06:12.324Z,23.46
2019-05-25T14:07:18.535Z,24.05
2019-05-25T14:08:22.059Z,24.26
2019-05-25T14:09:25.334Z,24.69
2019-05-25T14:10:32.193Z,24.69
2019-05-25T14:11:35.362Z,25.03
2019-05-25T14:12:42.188Z,25.03
2019-05-25T14:13:50.639Z,23.62